createdAt,value
2022-08-07T00:00:05.842Z,86
2022-08-07T00:01:12.828Z,86
2022-08-07T00:02:37.877Z,86
2022-08-07T00:05:00.463Z,86
2022-08-07T00:06:04.985Z,86
2022-08-07T00:07:20.608Z,86
2022-08-07T00:08:27.489Z,86
2022-08-07T00:09:34.366Z,86
2022-08-07T00:10:47.799Z,86
2022-08-07T00:11:48.169Z,86
2022-08-07T00:12:58.130Z,86
2022-08-07T00:13:50.557Z,86
2022-08-07T00:14:54.973Z,86
2022-08-07T00:15:59.498Z,86
2022-08-07T00:17:09.949Z,86
2022-08-07T00:18:48.661Z,86
2022-08-07T00:20:00.737Z,86
2022-08-07T00:21:08.092Z,86
2022-08-07T00:22:24.332Z,86
2022-08-07T00:23:21.683Z,86
2022-08-07T00:24:25.930Z,86
2022-08-07T00:25:37.377Z,86
2022-08-07T00:26:49.674Z,86
2022-08-07T00:28:55.516Z,86
2022-08-07T00:29:57.089Z,86
2022-08-07T00:32:51.924Z,86
2022-08-07T00:33:59.289Z,86
2022-08-07T00:35:05.353Z,86
2022-08-07T00:37:49.957Z,86
2022-08-07T00:39:25.706Z,86
2022-08-07T00:40:36.041Z,86
2022-08-07T00:41:37.368Z,86
2022-08-07T00:42:40.964Z,86
2022-08-07T00:43:58.794Z,86
2022-08-07T00:46:52.830Z,86
2022-08-07T00:48:08.554Z,86
2022-08-07T00:50:43.957Z,86
2022-08-07T00:51:56.523Z,86
2022-08-07T00:52:53.008Z,86
2022-08-07T00:53:56.325Z,86
2022-08-07T00:55:04.520Z,86
2022-08-07T00:56:07.442Z,86
2022-08-07T00:57:20.925Z,86
2022-08-07T00:58:25.396Z,86
2022-08-07T00:59:32.545Z,86
2022-08-07T01:00:34.245Z,86
2022-08-07T01:01:44.331Z,87
2022-08-07T01:04:21.632Z,87
2022-08-07T01:05:24.778Z,87
2022-08-07T01:06:49.424Z,87
2022-08-07T01:09:35.716Z,87
2022-08-07T01:10:37.941Z,86
2022-08-07T01:12:05.079Z,86
2022-08-07T01:14:02.352Z,86
2022-08-07T01:15:16.879Z,86
2022-08-07T01:18:00.809Z,86
2022-08-07T01:22:47.112Z,86
2022-08-07T01:23:58.233Z,86
2022-08-07T01:25:40.745Z,86
2022-08-07T01:26:12.388Z,86
2022-08-07T01:27:27.236Z,86
2022-08-07T01:28:46.126Z,86
2022-08-07T01:31:20.157Z,86
2022-08-07T01:32:27.524Z,86
2022-08-07T01:33:53.882Z,86
2022-08-07T01:34:43.521Z,86
2022-08-07T01:36:06.141Z,86
2022-08-07T01:42:57.101Z,86
2022-08-07T01:43:50.409Z,87
2022-08-07T01:46:37.279Z,86
2022-08-07T01:48:16.781Z,87
2022-08-07T01:49:55.647Z,86
2022-08-07T01:51:00.001Z,86
2022-08-07T01:54:09.885Z,86
2022-08-07T01:54:52.301Z,86
2022-08-07T01:56:08.357Z,86
2022-08-07T01:57:24.661Z,86
2022-08-07T01:58:29.735Z,86
2022-08-07T01:59:33.773Z,86
2022-08-07T02:00:45.500Z,86
2022-08-07T02:02:04.097Z,86
2022-08-07T02:03:12.753Z,86
2022-08-07T02:04:11.787Z,86
2022-08-07T02:05:42.878Z,86
2022-08-07T02:06:31.079Z,86
2022-08-07T02:07:36.025Z,86
2022-08-07T02:08:36.533Z,86
2022-08-07T02:09:52.583Z,86
2022-08-07T02:11:30.655Z,86
2022-08-07T02:12:34.346Z,86
2022-08-07T02:15:12.554Z,86
2022-08-07T02:17:31.775Z,86
2022-08-07T02:18:32.853Z,86
2022-08-07T02:20:03.822Z,86
2022-08-07T02:22:31.698Z,86
2022-08-07T02:23:41.291Z,86
2022-08-07T02:26:32.154Z,86
2022-08-07T02:27:25.705Z,86
2022-08-07T02:28:30.541Z,86
2022-08-07T02:29:36.747Z,86
2022-08-07T02:30:56.100Z,86
2022-08-07T02:34:11.341Z,86
2022-08-07T02:36:46.433Z,86
2022-08-07T02:37:55.485Z,86
2022-08-07T02:38:59.826Z,86
2022-08-07T02:40:31.252Z,86
2022-08-07T02:43:07.702Z,86
2022-08-07T02:44:16.566Z,86
2022-08-07T02:45:59.495Z,86
2022-08-07T02:46:28.766Z,86
2022-08-07T02:47:35.126Z,86
2022-08-07T02:49:07.246Z,86
2022-08-07T02:50:11.874Z,86
2022-08-07T02:51:29.138Z,86
2022-08-07T02:52:21.381Z,86
2022-08-07T02:55:15.219Z,86
2022-08-07T02:56:17.722Z,86
2022-08-07T02:57:24.814Z,86
2022-08-07T02:58:47.148Z,86
2022-08-07T02:59:55.082Z,86
2022-08-07T03:00:53.397Z,86
2022-08-07T03:01:57.775Z,86
2022-08-07T03:04:36.873Z,86
2022-08-07T03:05:41.559Z,86
2022-08-07T03:07:03.344Z,86
2022-08-07T03:09:54.253Z,86
2022-08-07T03:10:58.339Z,86
2022-08-07T03:15:07.653Z,86
2022-08-07T03:16:08.406Z,86
2022-08-07T03:17:12.658Z,86
2022-08-07T03:18:41.273Z,86
2022-08-07T03:19:52.885Z,86
2022-08-07T03:20:52.404Z,86
2022-08-07T03:22:06.445Z,86
2022-08-07T03:23:18.978Z,86
2022-08-07T03:24:37.689Z,86
2022-08-07T03:25:41.874Z,86
2022-08-07T03:27:06.287Z,86
2022-08-07T03:30:11.266Z,86
2022-08-07T03:31:15.836Z,86
2022-08-07T03:32:20.089Z,86
2022-08-07T03:35:17.178Z,86
2022-08-07T03:36:17.437Z,86
2022-08-07T03:37:21.694Z,86
2022-08-07T03:40:00.189Z,86
2022-08-07T03:41:06.458Z,86
2022-08-07T03:42:13.121Z,86
2022-08-07T03:43:17.414Z,86
2022-08-07T03:44:31.992Z,86
2022-08-07T03:45:30.537Z,86
2022-08-07T03:46:30.902Z,86
2022-08-07T03:47:45.226Z,86
2022-08-07T03:49:56.965Z,86
2022-08-07T03:51:01.622Z,86
2022-08-07T03:52:08.021Z,86
2022-08-07T03:53:49.971Z,86
2022-08-07T03:54:33.992Z,86
2022-08-07T03:55:55.676Z,86
2022-08-07T03:58:35.598Z,86
2022-08-07T03:59:27.101Z,86
2022-08-07T04:00:33.479Z,86
2022-08-07T04:01:36.904Z,86
2022-08-07T04:02:43.217Z,86
2022-08-07T04:03:50.097Z,86
2022-08-07T04:04:51.985Z,86
2022-08-07T04:05:58.692Z,86
2022-08-07T04:09:05.390Z,86
2022-08-07T04:10:15.461Z,86
2022-08-07T04:12:45.446Z,86
2022-08-07T04:14:38.292Z,86
2022-08-07T04:15:15.718Z,86
2022-08-07T04:16:32.679Z,86
2022-08-07T04:18:32.158Z,86
2022-08-07T04:18:58.923Z,86
2022-08-07T04:19:59.774Z,86
2022-08-07T04:21:04.258Z,86
2022-08-07T04:22:18.890Z,86
2022-08-07T04:23:43.062Z,86
2022-08-07T04:24:38.979Z,86
2022-08-07T04:25:53.502Z,86
2022-08-07T04:28:52.553Z,86
2022-08-07T04:29:58.814Z,87
2022-08-07T04:31:01.262Z,86
2022-08-07T04:32:10.778Z,87
2022-08-07T04:33:24.845Z,87
2022-08-07T04:36:22.836Z,87
2022-08-07T04:39:06.885Z,87
2022-08-07T04:40:19.601Z,87
2022-08-07T04:41:36.930Z,87
2022-08-07T04:42:43.157Z,88
2022-08-07T04:44:10.833Z,87
2022-08-07T04:45:03.126Z,88
2022-08-07T04:46:02.119Z,87
2022-08-07T04:47:23.437Z,88
2022-08-07T04:48:22.589Z,88
2022-08-07T04:49:42.237Z,88
2022-08-07T04:51:03.321Z,88
2022-08-07T04:52:26.471Z,88
2022-08-07T04:53:40.343Z,87
2022-08-07T04:54:53.365Z,87
2022-08-07T04:58:08.518Z,88
2022-08-07T04:58:08.626Z,87
2022-08-07T04:58:54.779Z,88
2022-08-07T05:01:18.718Z,88
2022-08-07T05:02:31.217Z,87
2022-08-07T05:04:00.881Z,87
2022-08-07T05:05:00.693Z,87
2022-08-07T05:06:16.277Z,87
2022-08-07T05:07:27.681Z,88
2022-08-07T05:08:45.651Z,88
2022-08-07T05:12:56.180Z,87
2022-08-07T05:14:45.329Z,87
2022-08-07T05:15:08.646Z,87
2022-08-07T05:16:20.271Z,87
2022-08-07T05:17:50.627Z,87
2022-08-07T05:18:29.578Z,87
2022-08-07T05:19:44.374Z,88
2022-08-07T05:20:43.250Z,88
2022-08-07T05:21:59.732Z,88
2022-08-07T05:22:58.032Z,88
2022-08-07T05:24:02.489Z,88
2022-08-07T05:26:10.185Z,88
2022-08-07T05:26:49.089Z,88
2022-08-07T05:28:03.674Z,87
2022-08-07T05:28:58.566Z,87
2022-08-07T05:30:06.636Z,87
2022-08-07T05:31:37.717Z,87
2022-08-07T05:32:39.601Z,88
2022-08-07T05:33:51.466Z,87
2022-08-07T05:35:00.301Z,87
2022-08-07T05:36:05.057Z,87
2022-08-07T05:37:09.509Z,87
2022-08-07T05:38:58.686Z,87
2022-08-07T05:40:04.929Z,87
2022-08-07T05:42:33.573Z,88
2022-08-07T05:43:43.311Z,88
2022-08-07T05:45:04.609Z,87
2022-08-07T05:46:14.566Z,88
2022-08-07T05:47:37.947Z,87
2022-08-07T05:48:26.889Z,88
2022-08-07T05:49:37.136Z,88
2022-08-07T05:50:35.966Z,87
2022-08-07T05:51:40.682Z,88
2022-08-07T05:52:48.552Z,87
2022-08-07T05:54:09.143Z,87
2022-08-07T05:54:58.682Z,87
2022-08-07T05:56:05.748Z,87
2022-08-07T05:57:07.973Z,87
2022-08-07T05:58:15.610Z,87
2022-08-07T05:59:19.869Z,87
2022-08-07T06:00:24.205Z,86
2022-08-07T06:02:58.984Z,86
2022-08-07T06:04:06.693Z,87
2022-08-07T06:06:56.541Z,86
2022-08-07T06:08:05.577Z,86
2022-08-07T06:09:04.505Z,86
2022-08-07T06:10:15.259Z,86
2022-08-07T06:11:34.328Z,87
2022-08-07T06:14:21.136Z,86
2022-08-07T06:15:39.004Z,86
2022-08-07T06:16:30.358Z,85
2022-08-07T06:19:17.758Z,86
2022-08-07T06:20:25.311Z,85
2022-08-07T06:22:12.289Z,85
2022-08-07T06:22:44.578Z,85
2022-08-07T06:24:38.962Z,85
2022-08-07T06:25:10.107Z,86
2022-08-07T06:26:27.703Z,85
2022-08-07T06:27:43.812Z,84
2022-08-07T06:28:36.349Z,84
2022-08-07T06:29:50.860Z,84
2022-08-07T06:31:10.512Z,84
2022-08-07T06:32:15.108Z,83
2022-08-07T06:34:57.037Z,83
2022-08-07T06:36:12.384Z,83
2022-08-07T06:37:17.137Z,83
2022-08-07T06:38:19.294Z,83
2022-08-07T06:40:14.073Z,83
2022-08-07T06:40:39.352Z,82
2022-08-07T06:42:01.338Z,83
2022-08-07T06:42:57.257Z,82
2022-08-07T06:44:14.231Z,82
2022-08-07T06:45:30.809Z,82
2022-08-07T06:48:11.395Z,80
2022-08-07T06:49:15.633Z,80
2022-08-07T06:50:43.172Z,80
2022-08-07T06:51:49.828Z,80
2022-08-07T06:53:07.252Z,81
2022-08-07T06:55:31.056Z,81
2022-08-07T06:55:47.704Z,80
2022-08-07T06:56:48.380Z,80
2022-08-07T06:57:50.916Z,80
2022-08-07T07:00:10.973Z,80
2022-08-07T07:00:11.151Z,80
2022-08-07T07:01:05.699Z,80
2022-08-07T07:02:11.272Z,79
2022-08-07T07:03:19.885Z,78
2022-08-07T07:04:28.782Z,79
2022-08-07T07:06:02.129Z,78
2022-08-07T07:06:33.944Z,77
2022-08-07T07:07:58.914Z,77
2022-08-07T07:08:46.540Z,76
2022-08-07T07:09:47.812Z,76
2022-08-07T07:10:55.083Z,76
2022-08-07T07:12:07.388Z,76
2022-08-07T07:13:12.733Z,75
2022-08-07T07:16:01.184Z,75
2022-08-07T07:17:05.511Z,75
2022-08-07T07:18:10.104Z,75
2022-08-07T07:19:54.903Z,71
2022-08-07T07:20:39.780Z,70
2022-08-07T07:22:04.374Z,68
2022-08-07T07:24:05.738Z,69
2022-08-07T07:24:12.481Z,69
2022-08-07T07:26:31.978Z,69
2022-08-07T07:26:36.786Z,70
2022-08-07T07:27:55.276Z,70
2022-08-07T07:29:28.511Z,70
2022-08-07T07:30:09.542Z,70
2022-08-07T07:31:30.404Z,69
2022-08-07T07:32:38.039Z,70
2022-08-07T07:33:42.216Z,70
2022-08-07T07:34:48.455Z,70
2022-08-07T07:36:04.207Z,71
2022-08-07T07:37:14.876Z,72
2022-08-07T07:38:11.428Z,72
2022-08-07T07:39:15.147Z,73
2022-08-07T07:40:19.493Z,72
2022-08-07T07:41:50.515Z,73
2022-08-07T07:42:41.083Z,72
2022-08-07T07:44:14.994Z,73
2022-08-07T07:45:11.419Z,72
2022-08-07T07:46:36.313Z,71
2022-08-07T07:49:08.849Z,71
2022-08-07T07:50:32.059Z,72
2022-08-07T07:51:15.511Z,73
2022-08-07T07:52:18.735Z,74
2022-08-07T07:53:40.699Z,74
2022-08-07T07:54:44.136Z,74
2022-08-07T07:55:55.017Z,74
2022-08-07T07:56:57.363Z,74
2022-08-07T07:59:51.909Z,74
2022-08-07T08:00:40.647Z,75
2022-08-07T08:02:01.396Z,75
2022-08-07T08:03:01.388Z,75
2022-08-07T08:04:06.706Z,75
2022-08-07T08:04:59.655Z,75
2022-08-07T08:06:04.736Z,75
2022-08-07T08:07:09.267Z,76
2022-08-07T08:09:51.921Z,75
2022-08-07T08:10:59.303Z,76
2022-08-07T08:12:06.615Z,76
2022-08-07T08:13:15.091Z,75
2022-08-07T08:14:29.579Z,75
2022-08-07T08:15:43.774Z,74
2022-08-07T08:17:56.892Z,74
2022-08-07T08:18:46.103Z,74
2022-08-07T08:20:16.830Z,73
2022-08-07T08:20:54.743Z,73
2022-08-07T08:22:02.920Z,74
2022-08-07T08:23:09.369Z,73
2022-08-07T08:24:34.392Z,74
2022-08-07T08:25:42.086Z,74
2022-08-07T08:26:44.274Z,73
2022-08-07T08:28:03.777Z,73
2022-08-07T08:29:11.916Z,73
2022-08-07T08:30:17.414Z,73
2022-08-07T08:31:23.001Z,73
2022-08-07T08:32:38.291Z,74
2022-08-07T08:33:33.420Z,73
2022-08-07T08:34:37.816Z,73
2022-08-07T08:35:47.158Z,72
2022-08-07T08:36:56.167Z,72
2022-08-07T08:38:00.090Z,71
2022-08-07T08:39:01.579Z,72
2022-08-07T08:40:05.078Z,71
2022-08-07T08:41:14.948Z,71
2022-08-07T08:42:20.995Z,71
2022-08-07T08:43:41.943Z,71
2022-08-07T08:44:44.447Z,71
2022-08-07T08:46:01.424Z,71
2022-08-07T08:47:09.809Z,71
2022-08-07T08:48:15.555Z,71
2022-08-07T08:49:33.049Z,71
2022-08-07T08:50:39.918Z,71
2022-08-07T08:51:50.003Z,71
2022-08-07T08:52:53.994Z,71
2022-08-07T08:54:08.189Z,70
2022-08-07T08:55:53.050Z,70
2022-08-07T08:56:37.771Z,71
2022-08-07T08:57:41.939Z,71
2022-08-07T08:58:46.751Z,71
2022-08-07T08:59:54.515Z,70
2022-08-07T09:01:14.504Z,70
2022-08-07T09:02:17.631Z,68
2022-08-07T09:03:47.856Z,67
2022-08-07T09:04:42.384Z,68
2022-08-07T09:05:53.880Z,67
2022-08-07T09:07:03.418Z,67
2022-08-07T09:08:18.207Z,67
2022-08-07T09:09:33.158Z,66
2022-08-07T09:10:47.151Z,66
2022-08-07T09:12:20.327Z,65
2022-08-07T09:13:19.923Z,65
2022-08-07T09:14:35.444Z,65
2022-08-07T09:16:20.759Z,65
2022-08-07T09:16:51.575Z,65
2022-08-07T09:18:06.026Z,65
2022-08-07T09:20:52.883Z,65
2022-08-07T09:22:23.305Z,63
2022-08-07T09:24:34.281Z,63
2022-08-07T09:24:55.789Z,63
2022-08-07T09:25:40.575Z,64
2022-08-07T09:26:56.799Z,63
2022-08-07T09:28:03.464Z,64
2022-08-07T09:29:24.677Z,64
2022-08-07T09:30:25.440Z,64
2022-08-07T09:31:48.706Z,64
2022-08-07T09:32:58.859Z,64
2022-08-07T09:34:13.811Z,65
2022-08-07T09:36:00.783Z,65
2022-08-07T09:38:38.627Z,66
2022-08-07T09:39:53.388Z,66
2022-08-07T09:41:03.622Z,66
2022-08-07T09:42:16.964Z,66
2022-08-07T09:43:40.398Z,66
2022-08-07T09:44:52.130Z,67
2022-08-07T09:46:29.139Z,67
2022-08-07T09:47:27.247Z,67
2022-08-07T09:48:18.959Z,68
2022-08-07T09:49:59.897Z,67
2022-08-07T09:50:39.833Z,67
2022-08-07T09:52:09.514Z,67
2022-08-07T09:53:00.095Z,68
2022-08-07T09:54:05.599Z,68
2022-08-07T09:55:29.212Z,68
2022-08-07T09:56:33.971Z,68
2022-08-07T09:57:46.576Z,67
2022-08-07T09:59:02.440Z,67
2022-08-07T10:00:32.202Z,67
2022-08-07T10:04:04.288Z,67
2022-08-07T10:04:46.087Z,67
2022-08-07T10:05:59.315Z,68
2022-08-07T10:07:06.627Z,67
2022-08-07T10:08:18.812Z,67
2022-08-07T10:09:34.464Z,67
2022-08-07T10:11:17.447Z,67
2022-08-07T10:13:55.674Z,66
2022-08-07T10:15:01.611Z,65
2022-08-07T10:16:10.960Z,65
2022-08-07T10:17:28.938Z,64
2022-08-07T10:18:40.711Z,62
2022-08-07T10:19:51.107Z,60
2022-08-07T10:21:00.608Z,61
2022-08-07T10:22:16.936Z,60
2022-08-07T10:24:04.691Z,61
2022-08-07T10:24:38.090Z,61
2022-08-07T10:25:51.908Z,61
2022-08-07T10:26:59.319Z,61
2022-08-07T10:28:14.279Z,61
2022-08-07T10:29:21.479Z,61
2022-08-07T10:32:07.380Z,61
2022-08-07T10:33:16.860Z,60
2022-08-07T10:34:32.121Z,60
2022-08-07T10:35:55.104Z,61
2022-08-07T10:36:59.856Z,61
2022-08-07T10:38:21.385Z,61
2022-08-07T10:39:41.111Z,62
2022-08-07T10:40:46.419Z,61
2022-08-07T10:42:09.591Z,61
2022-08-07T10:43:08.044Z,61
2022-08-07T10:44:28.571Z,62
2022-08-07T10:45:45.556Z,62
2022-08-07T10:46:59.292Z,62
2022-08-07T10:48:09.528Z,62
2022-08-07T10:49:22.023Z,64
2022-08-07T10:50:42.169Z,64
2022-08-07T10:52:13.070Z,63
2022-08-07T10:53:21.317Z,64
2022-08-07T10:54:36.119Z,64
2022-08-07T10:55:47.412Z,64
2022-08-07T10:57:02.755Z,64
2022-08-07T10:58:12.387Z,63
2022-08-07T10:59:22.079Z,63
2022-08-07T11:00:39.720Z,64
2022-08-07T11:01:51.309Z,63
2022-08-07T11:02:58.698Z,64
2022-08-07T11:04:16.830Z,64
2022-08-07T11:05:15.126Z,64
2022-08-07T11:06:26.689Z,64
2022-08-07T11:07:57.107Z,64
2022-08-07T11:08:51.759Z,64
2022-08-07T11:10:08.105Z,64
2022-08-07T11:11:14.199Z,64
2022-08-07T11:12:31.893Z,64
2022-08-07T11:13:42.609Z,64
2022-08-07T11:14:57.734Z,63
2022-08-07T11:15:54.331Z,63
2022-08-07T11:17:00.918Z,63
2022-08-07T11:18:03.498Z,61
2022-08-07T11:19:07.683Z,62
2022-08-07T11:20:12.186Z,63
2022-08-07T11:21:22.852Z,63
2022-08-07T11:22:33.421Z,62
2022-08-07T11:23:36.328Z,62
2022-08-07T11:24:47.464Z,61
2022-08-07T11:25:57.119Z,61
2022-08-07T11:27:07.295Z,62
2022-08-07T11:28:18.191Z,62
2022-08-07T11:29:41.575Z,60
2022-08-07T11:30:39.296Z,61
2022-08-07T11:31:45.053Z,61
2022-08-07T11:32:55.270Z,59
2022-08-07T11:34:12.563Z,58
2022-08-07T11:35:17.598Z,57
2022-08-07T11:36:25.305Z,57
2022-08-07T11:37:38.239Z,58
2022-08-07T11:38:50.430Z,57
2022-08-07T11:39:59.642Z,56
2022-08-07T11:41:03.634Z,56
2022-08-07T11:42:16.929Z,57
2022-08-07T11:43:29.907Z,55
2022-08-07T11:44:25.538Z,55
2022-08-07T11:45:49.826Z,56
2022-08-07T11:46:56.358Z,55
2022-08-07T11:48:13.978Z,55
2022-08-07T11:49:28.972Z,54
2022-08-07T11:50:32.111Z,53
2022-08-07T11:51:44.812Z,53
2022-08-07T11:52:57.503Z,51
2022-08-07T11:54:10.307Z,51
2022-08-07T11:55:18.757Z,51
2022-08-07T11:56:28.174Z,52
2022-08-07T11:57:58.390Z,52
2022-08-07T11:58:45.689Z,52
2022-08-07T12:00:08.540Z,54
2022-08-07T12:01:04.296Z,54
2022-08-07T12:02:17.838Z,54
2022-08-07T12:03:42.494Z,54
2022-08-07T12:04:46.202Z,54
2022-08-07T12:06:36.589Z,54
2022-08-07T12:07:38.820Z,53
2022-08-07T12:08:46.210Z,53
2022-08-07T12:09:53.563Z,52
2022-08-07T12:11:00.805Z,53
2022-08-07T12:12:11.520Z,54
2022-08-07T12:13:16.791Z,53
2022-08-07T12:14:26.442Z,53
2022-08-07T12:15:35.582Z,53
2022-08-07T12:16:35.558Z,52
2022-08-07T12:17:59.165Z,51
2022-08-07T12:19:02.820Z,52
2022-08-07T12:20:21.168Z,50
2022-08-07T12:21:56.109Z,51
2022-08-07T12:22:38.196Z,49
2022-08-07T12:24:05.217Z,50
2022-08-07T12:25:02.146Z,49
2022-08-07T12:26:23.798Z,49
2022-08-07T12:28:04.120Z,50
2022-08-07T12:28:38.891Z,51
2022-08-07T12:29:51.599Z,51
2022-08-07T12:30:55.206Z,51
2022-08-07T12:32:12.532Z,50
2022-08-07T12:33:19.006Z,50
2022-08-07T12:34:22.792Z,51
2022-08-07T12:35:26.773Z,50
2022-08-07T12:36:49.310Z,50
2022-08-07T12:38:08.818Z,50
2022-08-07T12:39:59.753Z,49
2022-08-07T12:41:04.121Z,51
2022-08-07T12:42:18.683Z,51
2022-08-07T12:44:01.307Z,50
2022-08-07T12:44:42.953Z,49
2022-08-07T12:45:50.375Z,49
2022-08-07T12:47:01.674Z,48
2022-08-07T12:48:13.280Z,49
2022-08-07T12:49:40.352Z,50
2022-08-07T12:50:39.765Z,50
2022-08-07T12:51:50.831Z,51
2022-08-07T12:52:47.710Z,50
2022-08-07T12:54:02.487Z,51
2022-08-07T12:55:04.028Z,49
2022-08-07T12:56:11.346Z,49
2022-08-07T12:57:20.906Z,49
2022-08-07T12:59:54.077Z,51
2022-08-07T13:02:09.732Z,51
2022-08-07T13:03:23.151Z,49
2022-08-07T13:04:49.018Z,49
2022-08-07T13:06:04.237Z,49
2022-08-07T13:07:01.472Z,49
2022-08-07T13:08:19.049Z,49
2022-08-07T13:10:17.707Z,50
2022-08-07T13:10:37.469Z,50
2022-08-07T13:12:02.911Z,51
2022-08-07T13:13:08.745Z,50
2022-08-07T13:14:21.466Z,50
2022-08-07T13:15:32.031Z,50
2022-08-07T13:16:46.670Z,50
2022-08-07T13:18:00.174Z,51
2022-08-07T13:19:04.601Z,52
2022-08-07T13:20:21.682Z,51
2022-08-07T13:21:37.888Z,51
2022-08-07T13:22:52.425Z,50
2022-08-07T13:24:00.346Z,51
2022-08-07T13:25:03.261Z,51
2022-08-07T13:26:08.178Z,51
2022-08-07T13:27:21.098Z,51
2022-08-07T13:30:39.543Z,52
2022-08-07T13:31:46.334Z,53
2022-08-07T13:32:54.286Z,53
2022-08-07T13:34:32.473Z,52
2022-08-07T13:35:59.443Z,52
2022-08-07T13:36:48.969Z,52
2022-08-07T13:37:55.635Z,52
2022-08-07T13:39:11.225Z,52
2022-08-07T13:40:34.706Z,52
2022-08-07T13:41:27.845Z,51
2022-08-07T13:42:30.885Z,50
2022-08-07T13:43:52.283Z,50
2022-08-07T13:44:55.552Z,50
2022-08-07T13:46:07.784Z,52
2022-08-07T13:46:59.707Z,51
2022-08-07T13:48:06.693Z,51
2022-08-07T13:49:08.805Z,51
2022-08-07T13:52:05.829Z,50
2022-08-07T13:52:41.970Z,50
2022-08-07T13:53:59.921Z,49
2022-08-07T13:55:19.421Z,51
2022-08-07T13:56:19.890Z,50
2022-08-07T13:57:24.450Z,51
2022-08-07T13:58:31.580Z,50
2022-08-07T13:59:39.623Z,50
2022-08-07T14:01:07.995Z,50
2022-08-07T14:02:12.652Z,49
2022-08-07T14:03:28.879Z,50
2022-08-07T14:04:29.873Z,50
2022-08-07T14:05:37.657Z,50
2022-08-07T14:06:48.535Z,50
2022-08-07T14:07:59.815Z,50
2022-08-07T14:08:58.218Z,50
2022-08-07T14:10:17.898Z,50
2022-08-07T14:11:14.888Z,50
2022-08-07T14:12:20.928Z,50
2022-08-07T14:13:33.314Z,50
2022-08-07T14:14:34.213Z,49
2022-08-07T14:15:59.178Z,50
2022-08-07T14:17:13.280Z,50
2022-08-07T14:18:13.739Z,49
2022-08-07T14:19:17.720Z,49
2022-08-07T14:20:39.662Z,49
2022-08-07T14:22:02.676Z,49
2022-08-07T14:22:50.267Z,48
2022-08-07T14:24:09.937Z,47
2022-08-07T14:25:19.726Z,47
2022-08-07T14:26:28.608Z,48
2022-08-07T14:28:10.192Z,47
2022-08-07T14:30:32.459Z,48
2022-08-07T14:31:42.183Z,48
2022-08-07T14:32:39.099Z,48
2022-08-07T14:33:44.246Z,47
2022-08-07T14:34:47.671Z,49
2022-08-07T14:35:52.022Z,50
2022-08-07T14:36:56.647Z,51
2022-08-07T14:38:02.991Z,51
2022-08-07T14:39:06.474Z,51
2022-08-07T14:40:15.373Z,52
2022-08-07T14:41:33.776Z,51
2022-08-07T14:42:59.856Z,52
2022-08-07T14:43:56.127Z,52
2022-08-07T14:44:52.906Z,51
2022-08-07T14:47:30.465Z,52
2022-08-07T14:48:34.498Z,51
2022-08-07T14:49:57.866Z,51
2022-08-07T14:50:53.408Z,50
2022-08-07T14:52:03.607Z,50
2022-08-07T14:53:07.969Z,50
2022-08-07T14:54:30.472Z,50
2022-08-07T14:55:17.571Z,52
2022-08-07T14:56:28.640Z,51
2022-08-07T14:57:28.912Z,51
2022-08-07T14:58:32.358Z,52
2022-08-07T15:00:02.977Z,51
2022-08-07T15:00:41.295Z,51
2022-08-07T15:02:56.621Z,51
2022-08-07T15:04:00.178Z,51
2022-08-07T15:05:02.219Z,52
2022-08-07T15:06:06.438Z,52
2022-08-07T15:07:16.563Z,52
2022-08-07T15:08:18.321Z,51
2022-08-07T15:09:57.367Z,51
2022-08-07T15:10:30.581Z,50
2022-08-07T15:11:48.700Z,50
2022-08-07T15:14:17.552Z,51
2022-08-07T15:15:22.607Z,51
2022-08-07T15:16:34.012Z,50
2022-08-07T15:17:54.798Z,51
2022-08-07T15:19:01.930Z,52
2022-08-07T15:20:32.116Z,52
2022-08-07T15:22:04.528Z,50
2022-08-07T15:22:54.690Z,51
2022-08-07T15:25:03.339Z,50
2022-08-07T15:25:36.579Z,50
2022-08-07T15:28:33.188Z,50
2022-08-07T15:30:04.257Z,50
2022-08-07T15:30:17.103Z,49
2022-08-07T15:32:39.288Z,51
2022-08-07T15:33:35.946Z,50
2022-08-07T15:34:37.822Z,50
2022-08-07T15:36:01.091Z,51
2022-08-07T15:38:30.603Z,52
2022-08-07T15:39:28.729Z,52
2022-08-07T15:40:48.864Z,51
2022-08-07T15:42:42.723Z,51
2022-08-07T15:43:53.978Z,51
2022-08-07T15:44:51.632Z,51
2022-08-07T15:45:55.381Z,52
2022-08-07T15:46:57.094Z,51
2022-08-07T15:48:18.570Z,51
2022-08-07T15:49:25.344Z,51
2022-08-07T15:50:37.366Z,51
2022-08-07T15:52:44.774Z,51
2022-08-07T15:53:54.143Z,51
2022-08-07T15:55:08.778Z,51
2022-08-07T15:56:10.730Z,52
2022-08-07T15:57:28.495Z,52
2022-08-07T15:59:44.035Z,26
2022-08-07T16:00:52.946Z,53
2022-08-07T16:02:01.577Z,53
2022-08-07T16:03:05.039Z,52
2022-08-07T16:04:23.643Z,53
2022-08-07T16:05:31.575Z,53
2022-08-07T16:06:36.266Z,53
2022-08-07T16:08:28.711Z,53
2022-08-07T16:08:50.610Z,53
2022-08-07T16:09:54.894Z,54
2022-08-07T16:11:25.409Z,53
2022-08-07T16:12:14.156Z,54
2022-08-07T16:13:39.475Z,54
2022-08-07T16:14:28.261Z,55
2022-08-07T16:15:56.488Z,55
2022-08-07T16:16:50.035Z,55
2022-08-07T16:18:01.257Z,55
2022-08-07T16:19:18.377Z,56
2022-08-07T16:20:34.545Z,55
2022-08-07T16:21:44.359Z,55
2022-08-07T16:22:54.718Z,55
2022-08-07T16:23:58.707Z,55
2022-08-07T16:25:04.703Z,55
2022-08-07T16:26:16.326Z,55
2022-08-07T16:27:39.838Z,55
2022-08-07T16:29:18.975Z,54
2022-08-07T16:30:08.103Z,55
2022-08-07T16:30:57.787Z,55
2022-08-07T16:32:25.404Z,55
2022-08-07T16:34:03.662Z,56
2022-08-07T16:34:23.738Z,56
2022-08-07T16:35:50.487Z,56
2022-08-07T16:36:47.836Z,57
2022-08-07T16:38:02.716Z,56
2022-08-07T16:39:00.768Z,56
2022-08-07T16:40:12.937Z,56
2022-08-07T16:41:22.208Z,56
2022-08-07T16:42:31.758Z,56
2022-08-07T16:44:02.813Z,56
2022-08-07T16:45:14.518Z,56
2022-08-07T16:47:04.298Z,56
2022-08-07T16:47:51.030Z,56
2022-08-07T16:50:19.574Z,56
2022-08-07T16:50:29.010Z,56
2022-08-07T16:51:51.904Z,56
2022-08-07T16:52:55.519Z,56
2022-08-07T16:54:03.249Z,56
2022-08-07T16:55:08.331Z,56
2022-08-07T16:56:16.709Z,56
2022-08-07T16:58:01.378Z,55
2022-08-07T16:59:10.446Z,56
2022-08-07T16:59:54.914Z,56
2022-08-07T17:01:20.319Z,56
2022-08-07T17:02:51.905Z,56
2022-08-07T17:03:58.667Z,56
2022-08-07T17:05:00.221Z,56
2022-08-07T17:06:29.165Z,57
2022-08-07T17:07:51.763Z,57
2022-08-07T17:09:04.627Z,56
2022-08-07T17:10:05.770Z,56
2022-08-07T17:10:59.433Z,56
2022-08-07T17:12:33.421Z,57
2022-08-07T17:13:14.043Z,57
2022-08-07T17:14:22.042Z,57
2022-08-07T17:15:44.027Z,57
2022-08-07T17:16:43.581Z,58
2022-08-07T17:17:59.078Z,57
2022-08-07T17:19:14.605Z,57
2022-08-07T17:20:21.595Z,57
2022-08-07T17:21:51.000Z,58
2022-08-07T17:22:47.166Z,58
2022-08-07T17:23:54.526Z,58
2022-08-07T17:25:10.129Z,58
2022-08-07T17:26:23.081Z,58
2022-08-07T17:29:18.428Z,58
2022-08-07T17:30:19.708Z,58
2022-08-07T17:31:35.661Z,58
2022-08-07T17:32:49.557Z,59
2022-08-07T17:34:10.447Z,59
2022-08-07T17:35:41.683Z,59
2022-08-07T17:36:26.401Z,59
2022-08-07T17:38:05.400Z,59
2022-08-07T17:38:40.318Z,60
2022-08-07T17:39:52.952Z,60
2022-08-07T17:40:59.481Z,60
2022-08-07T17:42:08.599Z,61
2022-08-07T17:43:19.112Z,61
2022-08-07T17:44:35.160Z,60
2022-08-07T17:45:37.014Z,60
2022-08-07T17:46:52.324Z,59
2022-08-07T17:48:00.952Z,60
2022-08-07T17:49:23.098Z,60
2022-08-07T17:50:22.141Z,60
2022-08-07T17:51:49.541Z,60
2022-08-07T17:52:51.026Z,60
2022-08-07T17:54:06.233Z,60
2022-08-07T17:55:55.676Z,60
2022-08-07T17:56:26.089Z,60
2022-08-07T17:57:31.956Z,61
2022-08-07T17:58:33.789Z,61
2022-08-07T17:59:45.677Z,61
2022-08-07T18:00:53.573Z,62
2022-08-07T18:01:57.971Z,63
2022-08-07T18:03:05.387Z,64
2022-08-07T18:04:17.981Z,65
2022-08-07T18:06:01.239Z,65
2022-08-07T18:08:49.438Z,65
2022-08-07T18:09:48.489Z,65
2022-08-07T18:11:17.336Z,65
2022-08-07T18:12:08.742Z,64
2022-08-07T18:13:15.250Z,63
2022-08-07T18:14:18.276Z,63
2022-08-07T18:15:32.431Z,63
2022-08-07T18:16:57.948Z,63
2022-08-07T18:18:33.368Z,63
2022-08-07T18:21:05.042Z,63
2022-08-07T18:21:05.330Z,64
2022-08-07T18:21:29.824Z,64
2022-08-07T18:24:10.481Z,66
2022-08-07T18:25:19.629Z,66
2022-08-07T18:27:53.645Z,67
2022-08-07T18:29:02.958Z,68
2022-08-07T18:30:32.075Z,68
2022-08-07T18:32:46.542Z,68
2022-08-07T18:33:56.089Z,68
2022-08-07T18:36:59.713Z,68
2022-08-07T18:38:54.757Z,68
2022-08-07T18:40:06.275Z,68
2022-08-07T18:41:03.887Z,68
2022-08-07T18:42:14.070Z,69
2022-08-07T18:43:36.813Z,70